sensor_id;sensor_type;location;lat;lon;timestamp;P1;durP1;ratioP1;P2;durP2;ratioP2
19032;SDS011;9649;51.042;13.804;2023-09-19T00:01:18;8.68;;;6.60;;
19032;SDS011;9649;51.042;13.804;2023-09-19T00:06:29;10.57;;;6.65;;
19032;SDS011;9649;51.042;13.804;2023-09-19T00:11:42;9.48;;;6.45;;
19032;SDS011;9649;51.042;13.804;2023-09-19T00:16:58;10.57;;;6.63;;
19032;SDS011;9649;51.042;13.804;2023-09-19T00:22:13;9.07;;;6.68;;
19032;SDS011;9649;51.042;13.804;2023-09-19T00:27:28;9.15;;;6.47;;
19032;SDS011;9649;51.042;13.804;2023-09-19T00:32:38;9.43;;;6.22;;
19032;SDS011;9649;51.042;13.804;2023-09-19T00:37:41;8.00;;;6.63;;
19032;SDS011;9649;51.042;13.804;2023-09-19T00:42:48;10.32;;;7.45;;
19032;SDS011;9649;51.042;13.804;2023-09-19T00:47:57;11.63;;;7.15;;
19032;SDS011;9649;51.042;13.804;2023-09-19T00:53:18;10.57;;;8.00;;
19032;SDS011;9649;51.042;13.804;2023-09-19T00:58:29;12.80;;;7.78;;
19032;SDS011;9649;51.042;13.804;2023-09-19T01:03:38;10.93;;;7.20;;
19032;SDS011;9649;51.042;13.804;2023-09-19T01:08:57;8.70;;;7.30;;
19032;SDS011;9649;51.042;13.804;2023-09-19T01:14:14;9.50;;;7.20;;
19032;SDS011;9649;51.042;13.804;2023-09-19T01:31:21;12.57;;;7.32;;
19032;SDS011;9649;51.042;13.804;2023-09-19T01:36:35;9.13;;;7.25;;
19032;SDS011;9649;51.042;13.804;2023-09-19T01:41:56;9.10;;;7.18;;
19032;SDS011;9649;51.042;13.804;2023-09-19T01:47:12;8.93;;;6.85;;
19032;SDS011;9649;51.042;13.804;2023-09-19T01:52:25;10.90;;;7.28;;
19032;SDS011;9649;51.042;13.804;2023-09-19T01:57:48;12.63;;;6.95;;
19032;SDS011;9649;51.042;13.804;2023-09-19T02:03:06;8.70;;;5.95;;
19032;SDS011;9649;51.042;13.804;2023-09-19T02:08:15;8.05;;;5.85;;
19032;SDS011;9649;51.042;13.804;2023-09-19T02:13:22;10.38;;;6.28;;
19032;SDS011;9649;51.042;13.804;2023-09-19T02:18:35;8.65;;;6.25;;
19032;SDS011;9649;51.042;13.804;2023-09-19T02:23:42;8.88;;;5.88;;
19032;SDS011;9649;51.042;13.804;2023-09-19T02:28:52;13.23;;;6.68;;
19032;SDS011;9649;51.042;13.804;2023-09-19T02:34:00;8.05;;;5.97;;
19032;SDS011;9649;51.042;13.804;2023-09-19T02:39:06;8.02;;;6.40;;
19032;SDS011;9649;51.042;13.804;2023-09-19T02:44:12;10.00;;;5.55;;
19032;SDS011;9649;51.042;13.804;2023-09-19T02:49:20;8.68;;;6.05;;
19032;SDS011;9649;51.042;13.804;2023-09-19T02:54:26;7.72;;;5.50;;
19032;SDS011;9649;51.042;13.804;2023-09-19T02:59:33;10.13;;;5.78;;
19032;SDS011;9649;51.042;13.804;2023-09-19T03:04:40;7.35;;;5.57;;
19032;SDS011;9649;51.042;13.804;2023-09-19T03:09:54;10.23;;;5.35;;
19032;SDS011;9649;51.042;13.804;2023-09-19T03:15:03;8.55;;;5.43;;
19032;SDS011;9649;51.042;13.804;2023-09-19T03:20:17;8.80;;;4.93;;
19032;SDS011;9649;51.042;13.804;2023-09-19T03:25:29;5.47;;;3.88;;
19032;SDS011;9649;51.042;13.804;2023-09-19T03:30:59;5.32;;;4.32;;
19032;SDS011;9649;51.042;13.804;2023-09-19T03:36:12;9.57;;;4.68;;
19032;SDS011;9649;51.042;13.804;2023-09-19T03:41:23;5.70;;;4.40;;
19032;SDS011;9649;51.042;13.804;2023-09-19T03:46:34;10.30;;;4.32;;
19032;SDS011;9649;51.042;13.804;2023-09-19T03:51:47;5.85;;;3.90;;
19032;SDS011;9649;51.042;13.804;2023-09-19T03:57:02;4.35;;;3.10;;
19032;SDS011;9649;51.042;13.804;2023-09-19T04:02:07;4.28;;;2.97;;
19032;SDS011;9649;51.042;13.804;2023-09-19T04:07:15;3.25;;;2.67;;
19032;SDS011;9649;51.042;13.804;2023-09-19T04:12:24;4.05;;;2.70;;
19032;SDS011;9649;51.042;13.804;2023-09-19T04:17:29;2.83;;;1.88;;
19032;SDS011;9649;51.042;13.804;2023-09-19T04:22:39;3.55;;;1.33;;
19032;SDS011;9649;51.042;13.804;2023-09-19T04:27:49;4.70;;;1.55;;
19032;SDS011;9649;51.042;13.804;2023-09-19T04:32:58;3.05;;;1.63;;
19032;SDS011;9649;51.042;13.804;2023-09-19T04:38:07;3.80;;;1.52;;
19032;SDS011;9649;51.042;13.804;2023-09-19T04:43:17;4.50;;;1.40;;
19032;SDS011;9649;51.042;13.804;2023-09-19T04:48:20;3.92;;;1.52;;
19032;SDS011;9649;51.042;13.804;2023-09-19T04:53:24;3.67;;;1.60;;
19032;SDS011;9649;51.042;13.804;2023-09-19T04:58:27;2.33;;;1.67;;
19032;SDS011;9649;51.042;13.804;2023-09-19T05:03:30;2.58;;;1.60;;
19032;SDS011;9649;51.042;13.804;2023-09-19T05:08:39;2.05;;;1.65;;
19032;SDS011;9649;51.042;13.804;2023-09-19T05:14:04;6.30;;;1.70;;
19032;SDS011;9649;51.042;13.804;2023-09-19T05:19:35;1.83;;;1.50;;
19032;SDS011;9649;51.042;13.804;2023-09-19T05:24:45;4.90;;;2.15;;
19032;SDS011;9649;51.042;13.804;2023-09-19T05:30:05;3.88;;;2.10;;
19032;SDS011;9649;51.042;13.804;2023-09-19T05:35:27;7.22;;;1.67;;
19032;SDS011;9649;51.042;13.804;2023-09-19T05:41:00;2.95;;;1.58;;
19032;SDS011;9649;51.042;13.804;2023-09-19T05:46:21;2.65;;;1.33;;
19032;SDS011;9649;51.042;13.804;2023-09-19T05:51:33;5.03;;;1.52;;
19032;SDS011;9649;51.042;13.804;2023-09-19T05:56:42;4.97;;;1.67;;
19032;SDS011;9649;51.042;13.804;2023-09-19T06:01:49;4.53;;;1.38;;
19032;SDS011;9649;51.042;13.804;2023-09-19T06:06:55;2.63;;;1.42;;
19032;SDS011;9649;51.042;13.804;2023-09-19T06:12:14;2.70;;;1.73;;
19032;SDS011;9649;51.042;13.804;2023-09-19T06:17:32;2.55;;;1.10;;
19032;SDS011;9649;51.042;13.804;2023-09-19T06:22:52;5.45;;;1.45;;
19032;SDS011;9649;51.042;13.804;2023-09-19T06:28:01;2.17;;;1.30;;
19032;SDS011;9649;51.042;13.804;2023-09-19T06:33:09;2.65;;;1.05;;
19032;SDS011;9649;51.042;13.804;2023-09-19T06:38:17;3.45;;;1.60;;
19032;SDS011;9649;51.042;13.804;2023-09-19T06:43:25;5.03;;;1.50;;
19032;SDS011;9649;51.042;13.804;2023-09-19T06:48:32;1.65;;;1.20;;
19032;SDS011;9649;51.042;13.804;2023-09-19T06:53:37;3.38;;;1.42;;
19032;SDS011;9649;51.042;13.804;2023-09-19T06:58:50;2.63;;;1.40;;
19032;SDS011;9649;51.042;13.804;2023-09-19T07:03:55;4.93;;;1.42;;
19032;SDS011;9649;51.042;13.804;2023-09-19T07:09:03;4.22;;;1.20;;
19032;SDS011;9649;51.042;13.804;2023-09-19T07:14:13;3.45;;;1.35;;
19032;SDS011;9649;51.042;13.804;2023-09-19T07:19:19;2.60;;;1.40;;
19032;SDS011;9649;51.042;13.804;2023-09-19T07:24:23;2.25;;;1.20;;
19032;SDS011;9649;51.042;13.804;2023-09-19T07:29:32;3.70;;;1.25;;
19032;SDS011;9649;51.042;13.804;2023-09-19T07:34:52;3.10;;;1.30;;
19032;SDS011;9649;51.042;13.804;2023-09-19T07:40:23;1.35;;;1.00;;
19032;SDS011;9649;51.042;13.804;2023-09-19T07:46:07;1.73;;;0.90;;
19032;SDS011;9649;51.042;13.804;2023-09-19T07:51:34;5.25;;;1.10;;
19032;SDS011;9649;51.042;13.804;2023-09-19T07:56:42;1.33;;;1.00;;
19032;SDS011;9649;51.042;13.804;2023-09-19T08:02:12;3.33;;;1.20;;
19032;SDS011;9649;51.042;13.804;2023-09-19T08:08:21;1.50;;;0.70;;
19032;SDS011;9649;51.042;13.804;2023-09-19T08:13:34;2.70;;;1.10;;
19032;SDS011;9649;51.042;13.804;2023-09-19T08:18:58;1.40;;;0.85;;
19032;SDS011;9649;51.042;13.804;2023-09-19T08:24:35;2.95;;;0.80;;
19032;SDS011;9649;51.042;13.804;2023-09-19T08:29:51;0.98;;;0.88;;
19032;SDS011;9649;51.042;13.804;2023-09-19T08:35:20;3.88;;;1.02;;
19032;SDS011;9649;51.042;13.804;2023-09-19T08:40:42;1.50;;;0.70;;
19032;SDS011;9649;51.042;13.804;2023-09-19T08:45:50;2.30;;;1.05;;
19032;SDS011;9649;51.042;13.804;2023-09-19T08:50:56;3.83;;;0.88;;
19032;SDS011;9649;51.042;13.804;2023-09-19T08:56:03;2.22;;;1.02;;
19032;SDS011;9649;51.042;13.804;2023-09-19T09:01:11;2.08;;;0.90;;
19032;SDS011;9649;51.042;13.804;2023-09-19T09:06:17;4.47;;;1.10;;
19032;SDS011;9649;51.042;13.804;2023-09-19T09:11:21;2.47;;;0.93;;
19032;SDS011;9649;51.042;13.804;2023-09-19T09:16:26;1.35;;;0.80;;
19032;SDS011;9649;51.042;13.804;2023-09-19T09:21:30;2.20;;;0.90;;
19032;SDS011;9649;51.042;13.804;2023-09-19T09:26:46;2.30;;;0.70;;
19032;SDS011;9649;51.042;13.804;2023-09-19T09:31:50;2.40;;;1.08;;
19032;SDS011;9649;51.042;13.804;2023-09-19T09:36:55;4.03;;;0.90;;
19032;SDS011;9649;51.042;13.804;2023-09-19T09:41:57;1.98;;;1.08;;
19032;SDS011;9649;51.042;13.804;2023-09-19T09:47:01;1.63;;;1.00;;
19032;SDS011;9649;51.042;13.804;2023-09-19T09:52:45;1.45;;;1.00;;
19032;SDS011;9649;51.042;13.804;2023-09-19T09:57:49;1.38;;;1.00;;
19032;SDS011;9649;51.042;13.804;2023-09-19T10:03:19;2.20;;;1.10;;
19032;SDS011;9649;51.042;13.804;2023-09-19T10:08:25;2.13;;;1.15;;
19032;SDS011;9649;51.042;13.804;2023-09-19T10:13:33;2.90;;;0.90;;
19032;SDS011;9649;51.042;13.804;2023-09-19T10:18:44;1.95;;;0.90;;
19032;SDS011;9649;51.042;13.804;2023-09-19T10:29:29;2.90;;;1.00;;
19032;SDS011;9649;51.042;13.804;2023-09-19T10:34:59;1.92;;;0.80;;
19032;SDS011;9649;51.042;13.804;2023-09-19T10:47:15;3.03;;;0.77;;
19032;SDS011;9649;51.042;13.804;2023-09-19T10:59:44;2.15;;;1.10;;
19032;SDS011;9649;51.042;13.804;2023-09-19T11:06:11;3.20;;;0.98;;
19032;SDS011;9649;51.042;13.804;2023-09-19T11:11:59;1.27;;;0.95;;
19032;SDS011;9649;51.042;13.804;2023-09-19T11:17:30;5.20;;;1.05;;
19032;SDS011;9649;51.042;13.804;2023-09-19T11:28:35;3.00;;;1.25;;
19032;SDS011;9649;51.042;13.804;2023-09-19T11:33:47;1.83;;;1.10;;
19032;SDS011;9649;51.042;13.804;2023-09-19T11:39:24;2.08;;;0.88;;
19032;SDS011;9649;51.042;13.804;2023-09-19T11:44:33;1.25;;;1.10;;
19032;SDS011;9649;51.042;13.804;2023-09-19T11:49:40;1.65;;;1.20;;
19032;SDS011;9649;51.042;13.804;2023-09-19T11:54:44;3.53;;;1.40;;
19032;SDS011;9649;51.042;13.804;2023-09-19T11:59:54;1.55;;;1.15;;
19032;SDS011;9649;51.042;13.804;2023-09-19T12:04:59;1.50;;;1.20;;
19032;SDS011;9649;51.042;13.804;2023-09-19T12:10:02;2.40;;;1.40;;
19032;SDS011;9649;51.042;13.804;2023-09-19T12:15:08;2.25;;;1.27;;
19032;SDS011;9649;51.042;13.804;2023-09-19T12:20:12;2.83;;;1.27;;
19032;SDS011;9649;51.042;13.804;2023-09-19T12:25:16;1.63;;;1.25;;
19032;SDS011;9649;51.042;13.804;2023-09-19T12:30:27;3.50;;;1.17;;
19032;SDS011;9649;51.042;13.804;2023-09-19T12:35:34;1.55;;;1.10;;
19032;SDS011;9649;51.042;13.804;2023-09-19T12:40:37;2.97;;;1.08;;
19032;SDS011;9649;51.042;13.804;2023-09-19T12:45:45;0.90;;;0.88;;
19032;SDS011;9649;51.042;13.804;2023-09-19T12:51:01;3.55;;;0.98;;
19032;SDS011;9649;51.042;13.804;2023-09-19T12:56:10;1.90;;;1.02;;
19032;SDS011;9649;51.042;13.804;2023-09-19T13:01:16;1.50;;;0.93;;
19032;SDS011;9649;51.042;13.804;2023-09-19T13:06:34;2.95;;;1.40;;
19032;SDS011;9649;51.042;13.804;2023-09-19T13:11:40;3.05;;;1.10;;
19032;SDS011;9649;51.042;13.804;2023-09-19T13:16:57;2.10;;;1.10;;
19032;SDS011;9649;51.042;13.804;2023-09-19T13:27:41;2.72;;;1.15;;
19032;SDS011;9649;51.042;13.804;2023-09-19T13:32:47;1.90;;;1.10;;
19032;SDS011;9649;51.042;13.804;2023-09-19T13:37:50;2.00;;;1.10;;
19032;SDS011;9649;51.042;13.804;2023-09-19T13:42:53;4.88;;;1.08;;
19032;SDS011;9649;51.042;13.804;2023-09-19T13:47:57;3.05;;;1.30;;
19032;SDS011;9649;51.042;13.804;2023-09-19T13:53:00;3.88;;;1.42;;
19032;SDS011;9649;51.042;13.804;2023-09-19T13:58:04;2.97;;;1.20;;
19032;SDS011;9649;51.042;13.804;2023-09-19T14:03:10;3.92;;;1.17;;
19032;SDS011;9649;51.042;13.804;2023-09-19T14:08:13;2.30;;;1.10;;
19032;SDS011;9649;51.042;13.804;2023-09-19T14:13:16;2.25;;;1.15;;
19032;SDS011;9649;51.042;13.804;2023-09-19T14:18:20;3.65;;;1.30;;
19032;SDS011;9649;51.042;13.804;2023-09-19T14:23:23;4.13;;;1.40;;
19032;SDS011;9649;51.042;13.804;2023-09-19T14:28:27;2.63;;;1.65;;
19032;SDS011;9649;51.042;13.804;2023-09-19T14:33:32;3.20;;;1.40;;
19032;SDS011;9649;51.042;13.804;2023-09-19T14:38:35;2.10;;;1.40;;
19032;SDS011;9649;51.042;13.804;2023-09-19T14:43:40;2.50;;;1.50;;
19032;SDS011;9649;51.042;13.804;2023-09-19T14:48:44;4.13;;;1.50;;
19032;SDS011;9649;51.042;13.804;2023-09-19T14:53:48;4.32;;;1.70;;
19032;SDS011;9649;51.042;13.804;2023-09-19T14:58:51;3.25;;;1.60;;
19032;SDS011;9649;51.042;13.804;2023-09-19T15:03:55;1.83;;;1.40;;
19032;SDS011;9649;51.042;13.804;2023-09-19T15:08:58;3.38;;;1.55;;
19032;SDS011;9649;51.042;13.804;2023-09-19T15:14:02;3.55;;;1.77;;
19032;SDS011;9649;51.042;13.804;2023-09-19T15:19:07;3.35;;;1.70;;
19032;SDS011;9649;51.042;13.804;2023-09-19T15:24:11;2.20;;;1.55;;
19032;SDS011;9649;51.042;13.804;2023-09-19T15:29:14;3.38;;;1.55;;
19032;SDS011;9649;51.042;13.804;2023-09-19T15:34:19;2.72;;;1.52;;
19032;SDS011;9649;51.042;13.804;2023-09-19T15:39:21;4.32;;;1.60;;
19032;SDS011;9649;51.042;13.804;2023-09-19T15:44:24;2.05;;;1.50;;
19032;SDS011;9649;51.042;13.804;2023-09-19T15:49:29;2.75;;;1.45;;
19032;SDS011;9649;51.042;13.804;2023-09-19T15:54:32;5.35;;;2.00;;
19032;SDS011;9649;51.042;13.804;2023-09-19T15:59:36;3.85;;;1.85;;
19032;SDS011;9649;51.042;13.804;2023-09-19T16:04:40;4.65;;;1.73;;
19032;SDS011;9649;51.042;13.804;2023-09-19T16:09:45;4.22;;;2.05;;
19032;SDS011;9649;51.042;13.804;2023-09-19T16:14:48;6.53;;;1.80;;
19032;SDS011;9649;51.042;13.804;2023-09-19T16:19:52;3.53;;;1.90;;
19032;SDS011;9649;51.042;13.804;2023-09-19T16:24:55;3.80;;;1.80;;
19032;SDS011;9649;51.042;13.804;2023-09-19T16:29:58;6.78;;;2.38;;
19032;SDS011;9649;51.042;13.804;2023-09-19T16:35:04;6.68;;;2.00;;
19032;SDS011;9649;51.042;13.804;2023-09-19T16:40:07;4.47;;;2.00;;
19032;SDS011;9649;51.042;13.804;2023-09-19T16:45:11;4.05;;;2.05;;
19032;SDS011;9649;51.042;13.804;2023-09-19T16:50:15;3.95;;;2.50;;
19032;SDS011;9649;51.042;13.804;2023-09-19T16:55:18;3.90;;;2.10;;
19032;SDS011;9649;51.042;13.804;2023-09-19T17:00:22;5.60;;;2.40;;
19032;SDS011;9649;51.042;13.804;2023-09-19T17:05:28;5.05;;;2.10;;
19032;SDS011;9649;51.042;13.804;2023-09-19T17:10:32;5.80;;;2.10;;
19032;SDS011;9649;51.042;13.804;2023-09-19T17:15:35;5.03;;;2.30;;
19032;SDS011;9649;51.042;13.804;2023-09-19T17:20:41;4.20;;;2.35;;
19032;SDS011;9649;51.042;13.804;2023-09-19T17:25:44;3.88;;;2.30;;
19032;SDS011;9649;51.042;13.804;2023-09-19T17:30:47;6.65;;;2.40;;
19032;SDS011;9649;51.042;13.804;2023-09-19T17:36:01;5.15;;;2.40;;
19032;SDS011;9649;51.042;13.804;2023-09-19T17:41:08;4.43;;;2.38;;
19032;SDS011;9649;51.042;13.804;2023-09-19T17:46:11;4.30;;;2.17;;
19032;SDS011;9649;51.042;13.804;2023-09-19T17:51:16;3.92;;;2.40;;
19032;SDS011;9649;51.042;13.804;2023-09-19T17:56:20;9.15;;;2.30;;
19032;SDS011;9649;51.042;13.804;2023-09-19T18:01:23;4.55;;;2.45;;
19032;SDS011;9649;51.042;13.804;2023-09-19T18:06:30;4.40;;;2.22;;
19032;SDS011;9649;51.042;13.804;2023-09-19T18:11:33;4.72;;;2.67;;
19032;SDS011;9649;51.042;13.804;2023-09-19T18:16:36;4.53;;;2.50;;
19032;SDS011;9649;51.042;13.804;2023-09-19T18:21:41;8.35;;;2.70;;
19032;SDS011;9649;51.042;13.804;2023-09-19T18:26:47;5.07;;;3.15;;
19032;SDS011;9649;51.042;13.804;2023-09-19T18:31:50;7.75;;;3.30;;
19032;SDS011;9649;51.042;13.804;2023-09-19T18:36:55;6.72;;;2.40;;
19032;SDS011;9649;51.042;13.804;2023-09-19T18:41:59;4.32;;;2.35;;
19032;SDS011;9649;51.042;13.804;2023-09-19T18:47:03;5.65;;;3.40;;
19032;SDS011;9649;51.042;13.804;2023-09-19T18:52:07;5.90;;;3.00;;
19032;SDS011;9649;51.042;13.804;2023-09-19T18:57:10;6.43;;;3.03;;
19032;SDS011;9649;51.042;13.804;2023-09-19T19:02:15;8.77;;;2.92;;
19032;SDS011;9649;51.042;13.804;2023-09-19T19:07:20;9.93;;;3.53;;
19032;SDS011;9649;51.042;13.804;2023-09-19T19:12:23;6.28;;;3.47;;
19032;SDS011;9649;51.042;13.804;2023-09-19T19:17:26;5.40;;;3.20;;
19032;SDS011;9649;51.042;13.804;2023-09-19T19:22:34;5.97;;;3.50;;
19032;SDS011;9649;51.042;13.804;2023-09-19T19:27:38;6.65;;;3.78;;
19032;SDS011;9649;51.042;13.804;2023-09-19T19:32:41;8.75;;;3.78;;
19032;SDS011;9649;51.042;13.804;2023-09-19T19:37:45;10.73;;;3.80;;
19032;SDS011;9649;51.042;13.804;2023-09-19T19:42:48;7.60;;;4.15;;
19032;SDS011;9649;51.042;13.804;2023-09-19T19:47:51;6.72;;;3.60;;
19032;SDS011;9649;51.042;13.804;2023-09-19T19:52:55;6.57;;;3.67;;
19032;SDS011;9649;51.042;13.804;2023-09-19T19:57:59;6.45;;;3.60;;
19032;SDS011;9649;51.042;13.804;2023-09-19T20:03:02;5.57;;;3.38;;
19032;SDS011;9649;51.042;13.804;2023-09-19T20:08:07;9.77;;;3.97;;
19032;SDS011;9649;51.042;13.804;2023-09-19T20:13:12;10.18;;;5.22;;
19032;SDS011;9649;51.042;13.804;2023-09-19T20:18:16;7.20;;;3.70;;
19032;SDS011;9649;51.042;13.804;2023-09-19T20:23:21;6.65;;;4.05;;
19032;SDS011;9649;51.042;13.804;2023-09-19T20:28:24;6.75;;;3.58;;
19032;SDS011;9649;51.042;13.804;2023-09-19T20:33:28;6.95;;;4.22;;
19032;SDS011;9649;51.042;13.804;2023-09-19T20:38:32;5.05;;;3.10;;
19032;SDS011;9649;51.042;13.804;2023-09-19T20:43:35;5.80;;;2.88;;
19032;SDS011;9649;51.042;13.804;2023-09-19T20:48:42;6.18;;;3.13;;
19032;SDS011;9649;51.042;13.804;2023-09-19T20:53:52;5.38;;;3.20;;
19032;SDS011;9649;51.042;13.804;2023-09-19T20:58:57;5.38;;;3.13;;
19032;SDS011;9649;51.042;13.804;2023-09-19T21:04:01;5.65;;;3.45;;
19032;SDS011;9649;51.042;13.804;2023-09-19T21:09:06;7.60;;;4.30;;
19032;SDS011;9649;51.042;13.804;2023-09-19T21:14:09;9.27;;;3.08;;
19032;SDS011;9649;51.042;13.804;2023-09-19T21:19:12;5.95;;;3.00;;
19032;SDS011;9649;51.042;13.804;2023-09-19T21:24:16;4.80;;;3.30;;
19032;SDS011;9649;51.042;13.804;2023-09-19T21:29:19;7.32;;;3.20;;
19032;SDS011;9649;51.042;13.804;2023-09-19T21:34:22;11.10;;;3.55;;
19032;SDS011;9649;51.042;13.804;2023-09-19T21:39:26;4.35;;;2.88;;
19032;SDS011;9649;51.042;13.804;2023-09-19T21:44:29;5.22;;;2.72;;
19032;SDS011;9649;51.042;13.804;2023-09-19T21:49:32;8.35;;;3.05;;
19032;SDS011;9649;51.042;13.804;2023-09-19T21:54:36;5.43;;;2.95;;
19032;SDS011;9649;51.042;13.804;2023-09-19T21:59:39;9.45;;;3.17;;
19032;SDS011;9649;51.042;13.804;2023-09-19T22:04:46;4.00;;;2.30;;
19032;SDS011;9649;51.042;13.804;2023-09-19T22:09:51;5.60;;;2.92;;
19032;SDS011;9649;51.042;13.804;2023-09-19T22:14:54;5.53;;;2.45;;
19032;SDS011;9649;51.042;13.804;2023-09-19T22:19:56;7.38;;;2.35;;
19032;SDS011;9649;51.042;13.804;2023-09-19T22:25:01;5.00;;;2.63;;
19032;SDS011;9649;51.042;13.804;2023-09-19T22:30:04;4.47;;;2.30;;
19032;SDS011;9649;51.042;13.804;2023-09-19T22:35:08;3.38;;;2.30;;
19032;SDS011;9649;51.042;13.804;2023-09-19T22:40:13;4.85;;;2.55;;
19032;SDS011;9649;51.042;13.804;2023-09-19T22:45:29;4.75;;;2.47;;
19032;SDS011;9649;51.042;13.804;2023-09-19T22:50:32;5.55;;;2.35;;
19032;SDS011;9649;51.042;13.804;2023-09-19T22:55:39;3.65;;;2.08;;
19032;SDS011;9649;51.042;13.804;2023-09-19T23:00:42;4.80;;;2.10;;
19032;SDS011;9649;51.042;13.804;2023-09-19T23:05:47;3.38;;;2.03;;
19032;SDS011;9649;51.042;13.804;2023-09-19T23:10:51;4.45;;;1.92;;
19032;SDS011;9649;51.042;13.804;2023-09-19T23:15:54;5.30;;;2.00;;
19032;SDS011;9649;51.042;13.804;2023-09-19T23:20:57;8.52;;;2.40;;
19032;SDS011;9649;51.042;13.804;2023-09-19T23:26:17;3.20;;;1.80;;
19032;SDS011;9649;51.042;13.804;2023-09-19T23:31:21;2.92;;;2.00;;
19032;SDS011;9649;51.042;13.804;2023-09-19T23:36:24;4.45;;;2.00;;
19032;SDS011;9649;51.042;13.804;2023-09-19T23:41:28;5.45;;;2.35;;
19032;SDS011;9649;51.042;13.804;2023-09-19T23:46:32;3.45;;;1.95;;
19032;SDS011;9649;51.042;13.804;2023-09-19T23:51:35;3.13;;;2.00;;
19032;SDS011;9649;51.042;13.804;2023-09-19T23:56:40;6.65;;;2.20;;
